Impacts METAR Board
IDs:

KSFO - San Francisco Intl, CA, US

Updated at: 1100 UTC 30 Oct 2020
Potential Impact None Slight Moderate High
Time 29/23Z 30/00Z 30/01Z 30/02Z 30/03Z 30/04Z 30/05Z 30/06Z 30/07Z 30/08Z 30/09Z 30/10Z 30/11Z
Temp72 67 65 62 60 58 56 56 55 55 53 54 53
Dewpt44 40 33 31 43 42 43 44 47 50 49 49 48
Altim30.00 30.00 30.00 30.01 30.02 30.02 30.03 30.05 30.05 30.05 30.05 30.05 30.04
VIS10 10 10 10 10 10 10 10 10 10 10 10 10
CIG-- -- -- -- -- -- -- -- -- -- -- -- --
CoverCLRCLRCLRCLRCLRCLRCLRCLRCLRCLRCLRCLRCLR
FltCatVFRVFRVFRVFRVFRVFRVFRVFRVFRVFRVFRVFRVFR
WX--------------------------
WDir300300290290290290300280300300290290280
WSpd12 18 15 13 13 9 7 6 9 9 9 6 5
WGst-- -- -- -- -- -- -- -- -- -- -- -- --
Raw hourly METARs
KSFO 292256Z 30012KT 10SM CLR 22/07 A3000 RMK AO2 SLP159 T02220067
KSFO 292356Z 30018KT 10SM CLR 19/04 A3000 RMK AO2 SLP160 T01940044 10228 20172 55008
KSFO 300056Z 29015KT 10SM CLR 18/01 A3000 RMK AO2 SLP158 T01830006
KSFO 300156Z 29013KT 10SM CLR 17/M01 A3001 RMK AO2 SLP162 T01671006
KSFO 300256Z 29013KT 10SM CLR 16/06 A3002 RMK AO2 SLP165 T01560061 53005
KSFO 300356Z 29009KT 10SM CLR 14/06 A3002 RMK AO2 SLP166 T01440056
KSFO 300456Z 30007KT 10SM CLR 13/06 A3003 RMK AO2 SLP170 T01330061
KSFO 300556Z 28006KT 10SM CLR 13/07 A3005 RMK AO2 SLP174 T01330067 10194 20128 53009
KSFO 300656Z 30009KT 10SM CLR 13/08 A3005 RMK AO2 SLP176 T01280083
KSFO 300756Z 30009KT 10SM CLR 13/10 A3005 RMK AO2 SLP175 T01280100 402280094
KSFO 300856Z 29009KT 10SM CLR 12/09 A3005 RMK AO2 SLP175 T01170094 51001
KSFO 300956Z 29006KT 10SM CLR 12/09 A3005 RMK AO2 SLP177 T01220094
KSFO 301056Z 28005KT 10SM CLR 12/09 A3004 RMK AO2 SLP173 T01170089



Page loaded:  11:31 UTC  |   04:31 AM Pacific  |   05:31 AM Mountain  |   06:31 AM Central  |   07:31 AM Eastern

 

ADVISORIES

FORECASTS

FORECASTS

OBSERVATIONS

USER TOOLS

ABOUT US